Time;durP1;ratioP1;P1;durP2;ratioP2;P2;SDS_P1;SDS_P2;PMS_P1;PMS_P2;Temp;Humidity;BMP_temperature;BMP_pressure;BME280_temperature;BME280_humidity;BME280_pressure;Samples;Min_cycle;Max_cycle;Signal;HPM_P1;HPM_P2
2023/07/01 00:02:01;;;;;;;12.50;9.70;;;;;;;27.07;44.23;99130.48;108961;1257;72032;-69
2023/07/01 00:04:29;;;;;;;14.20;10.60;;;;;;;27.48;43.51;99131.48;108937;1257;62363;-68
2023/07/01 00:06:56;;;;;;;12.30;9.10;;;;;;;27.35;43.70;99135.27;108956;1257;60508;-69
2023/07/01 00:09:24;;;;;;;13.50;10.70;;;;;;;27.58;43.35;99128.51;109064;1256;73825;-70
2023/07/01 00:11:51;;;;;;;16.40;9.90;;;;;;;28.01;42.55;99131.77;108958;1257;69997;-68
2023/07/01 00:14:19;;;;;;;11.10;8.70;;;;;;;27.69;42.89;99137.08;108979;1257;73771;-69
2023/07/01 00:16:46;;;;;;;14.60;10.20;;;;;;;27.50;43.30;99136.32;108945;1257;60624;-68
2023/07/01 00:19:13;;;;;;;12.10;10.00;;;;;;;27.53;43.23;99140.31;108991;1257;58796;-70
2023/07/01 00:21:41;;;;;;;13.40;10.50;;;;;;;27.19;43.78;99145.02;108975;1257;73007;-68
2023/07/01 00:24:08;;;;;;;15.70;10.80;;;;;;;26.95;44.45;99139.05;108967;1257;70374;-69
2023/07/01 00:26:36;;;;;;;11.20;9.80;;;;;;;26.97;44.24;99144.02;108975;1257;73056;-68
2023/07/01 00:29:03;;;;;;;12.80;10.90;;;;;;;27.10;44.19;99145.36;108958;1257;61675;-68
2023/07/01 00:31:30;;;;;;;11.40;8.80;;;;;;;27.22;43.91;99146.96;108932;1257;59285;-69
2023/07/01 00:33:59;;;;;;;13.40;9.90;;;;;;;27.09;44.11;99150.50;109005;1256;74093;-68
2023/07/01 00:36:26;;;;;;;13.50;10.60;;;;;;;27.16;43.82;99150.39;108953;1256;70005;-69
2023/07/01 00:38:54;;;;;;;11.30;9.10;;;;;;;27.14;44.02;99152.69;108884;1257;72867;-68
2023/07/01 00:41:21;;;;;;;13.20;10.00;;;;;;;27.16;44.09;99152.42;108947;1257;61800;-68
2023/07/01 00:43:49;;;;;;;11.00;9.80;;;;;;;27.20;44.06;99150.08;109076;1255;58777;-68
2023/07/01 00:46:16;;;;;;;14.60;9.30;;;;;;;26.92;44.40;99160.77;109060;1257;74199;-68
2023/07/01 00:48:44;;;;;;;12.50;11.20;;;;;;;26.72;45.03;99158.32;108953;1256;70150;-69
2023/07/01 00:51:11;;;;;;;13.50;10.50;;;;;;;26.70;45.10;99158.73;108966;1257;72797;-69
2023/07/01 00:53:39;;;;;;;15.30;11.00;;;;;;;26.64;45.10;99155.79;108960;1256;61776;-70
2023/07/01 00:56:07;;;;;;;12.20;10.30;;;;;;;26.50;45.50;99158.33;109023;1257;58898;-68
2023/07/01 00:58:36;;;;;;;11.10;9.20;;;;;;;26.37;45.83;99156.25;108737;1256;72608;-67
2023/07/01 01:01:07;;;;;;;14.20;10.70;;;;;;;26.62;45.40;99155.00;108551;1256;69687;-69
2023/07/01 01:03:50;;;;;;;14.30;9.60;;;;;;;26.73;45.17;99151.52;108909;1257;72466;-68
2023/07/01 01:06:20;;;;;;;13.60;9.20;;;;;;;26.73;45.19;99153.64;108910;1256;61728;-68
2023/07/01 01:08:51;;;;;;;16.80;10.60;;;;;;;26.59;45.40;99151.72;108888;1256;58898;-69
2023/07/01 01:11:19;;;;;;;13.60;9.70;;;;;;;26.73;45.17;99151.69;108961;1256;73043;-68
2023/07/01 01:13:46;;;;;;;15.40;11.30;;;;;;;26.77;45.08;99150.96;108947;1257;70457;-68
2023/07/01 01:16:14;;;;;;;17.00;12.50;;;;;;;26.72;45.20;99151.59;108928;1256;72710;-69
2023/07/01 01:18:45;;;;;;;16.10;12.00;;;;;;;26.75;45.26;99155.70;108892;1260;61606;-69
2023/07/01 01:21:13;;;;;;;16.90;12.10;;;;;;;26.66;45.35;99155.02;109064;1256;60542;-70
2023/07/01 01:23:46;;;;;;;13.10;10.60;;;;;;;25.97;46.58;99155.92;108902;1257;73791;-70
2023/07/01 01:26:18;;;;;;;15.00;10.10;;;;;;;25.88;46.83;99157.02;108953;1256;70312;-68
2023/07/01 01:28:46;;;;;;;16.20;11.90;;;;;;;26.10;46.34;99154.41;108971;1255;72694;-67
2023/07/01 01:31:13;;;;;;;16.10;10.60;;;;;;;26.01;46.53;99153.67;108961;1257;61629;-69
2023/07/01 01:33:41;;;;;;;16.30;11.80;;;;;;;25.56;47.40;99150.59;109065;1256;59928;-68
2023/07/01 01:36:21;;;;;;;15.10;11.80;;;;;;;25.30;47.85;99151.58;109082;1256;72643;-69
2023/07/01 01:38:49;;;;;;;14.60;11.40;;;;;;;25.20;48.15;99150.25;108941;1257;69934;-69
2023/07/01 01:41:21;;;;;;;15.10;12.30;;;;;;;25.14;48.42;99151.44;108962;1257;72742;-70
2023/07/01 01:44:10;;;;;;;17.80;12.30;;;;;;;25.35;47.95;99153.60;108865;1259;60753;-68
2023/07/01 01:46:38;;;;;;;15.40;11.90;;;;;;;25.20;48.33;99155.91;108932;1256;61450;-72
2023/07/01 01:49:06;;;;;;;16.80;10.60;;;;;;;25.12;48.41;99153.10;109014;1254;73879;-70
2023/07/01 01:51:36;;;;;;;16.30;10.50;;;;;;;25.13;48.50;99150.67;109073;1254;70851;-69
2023/07/01 01:54:04;;;;;;;17.20;11.30;;;;;;;25.33;48.07;99149.70;108903;1254;72805;-70
2023/07/01 01:56:32;;;;;;;16.00;11.90;;;;;;;25.54;47.61;99147.73;109044;1254;61709;-69
2023/07/01 01:58:59;;;;;;;14.20;11.30;;;;;;;25.44;47.69;99150.52;108932;1254;60114;-68
2023/07/01 02:01:26;;;;;;;17.70;12.20;;;;;;;25.34;48.09;99147.25;108956;1254;73831;-68
2023/07/01 02:03:56;;;;;;;19.20;11.50;;;;;;;25.28;48.04;99148.02;108928;1254;70069;-68
2023/07/01 02:06:24;;;;;;;10.40;8.30;;;;;;;25.15;48.18;99148.25;108964;1254;71392;-68
2023/07/01 02:08:51;;;;;;;18.30;12.20;;;;;;;25.13;48.27;99145.30;109059;1254;62141;-69
2023/07/01 02:11:19;;;;;;;18.10;11.90;;;;;;;25.20;47.91;99144.63;109012;1254;58807;-68
2023/07/01 02:13:46;;;;;;;16.10;12.50;;;;;;;25.17;48.08;99137.10;109071;1254;72816;-68
2023/07/01 02:16:13;;;;;;;16.40;10.90;;;;;;;25.36;47.73;99141.20;108977;1254;70472;-68
2023/07/01 02:18:41;;;;;;;13.90;9.80;;;;;;;25.10;48.21;99142.74;108959;1257;72287;-69
2023/07/01 02:21:08;;;;;;;14.80;11.30;;;;;;;25.35;47.69;99148.02;109072;1254;61003;-68
2023/07/01 02:23:35;;;;;;;14.00;10.20;;;;;;;25.41;47.57;99151.66;109035;1254;59975;-70
2023/07/01 02:26:03;;;;;;;11.80;9.70;;;;;;;25.44;47.60;99154.91;109019;1254;73871;-68
2023/07/01 02:28:30;;;;;;;16.50;12.00;;;;;;;25.36;47.72;99151.88;109052;1257;69927;-69
2023/07/01 02:30:57;;;;;;;15.00;9.80;;;;;;;25.28;48.05;99154.91;109020;1254;73195;-68
2023/07/01 02:33:25;;;;;;;15.40;11.30;;;;;;;25.50;47.80;99155.11;108943;1254;60778;-70
2023/07/01 02:35:52;;;;;;;19.10;11.60;;;;;;;25.37;48.19;99158.08;108962;1254;60137;-68
2023/07/01 02:38:20;;;;;;;14.30;9.70;;;;;;;25.40;48.32;99169.88;108752;1254;73842;-67
2023/07/01 02:40:47;;;;;;;18.10;11.30;;;;;;;25.37;48.41;99167.01;107811;1254;70018;-69
2023/07/01 02:43:15;;;;;;;21.60;13.30;;;;;;;25.51;48.54;99168.23;107761;1254;73188;-67
2023/07/01 02:45:43;;;;;;;17.40;13.50;;;;;;;25.70;48.38;99166.80;107808;1259;61701;-67
2023/07/01 02:48:10;;;;;;;20.90;15.20;;;;;;;25.81;48.42;99170.45;107697;1254;60456;-66
2023/07/01 02:50:38;;;;;;;15.20;11.80;;;;;;;25.94;48.22;99177.70;107791;1254;73895;-67
2023/07/01 02:53:05;;;;;;;20.00;16.50;;;;;;;25.79;48.68;99179.08;107647;1254;69341;-67
2023/07/01 02:55:32;;;;;;;18.70;13.30;;;;;;;26.32;47.90;99178.58;107650;1256;71502;-66
2023/07/01 02:58:00;;;;;;;16.80;14.20;;;;;;;26.33;47.94;99181.59;108047;1257;61382;-67
2023/07/01 03:00:27;;;;;;;24.50;14.40;;;;;;;26.44;47.87;99181.39;108969;1255;60461;-69
2023/07/01 03:03:05;;;;;;;15.90;11.90;;;;;;;26.42;47.98;99180.36;107895;1260;74291;-67
2023/07/01 03:05:35;;;;;;;19.50;13.80;;;;;;;26.65;47.58;99184.98;107581;1254;70407;-68
2023/07/01 03:08:06;;;;;;;16.20;11.80;;;;;;;26.64;47.62;99187.62;107564;1257;72681;-68
2023/07/01 03:10:33;;;;;;;14.30;11.60;;;;;;;26.63;47.55;99190.83;107664;1254;61825;-68
2023/07/01 03:13:01;;;;;;;14.40;10.80;;;;;;;26.52;47.91;99190.27;107613;1254;131039;-68
2023/07/01 03:16:57;;;;;;;13.00;11.10;;;;;;;23.49;55.25;99198.17;105209;1287;600792;-67
2023/07/01 03:19:25;;;;;;;14.30;11.20;;;;;;;24.49;52.95;99194.98;107611;1267;60631;-68
2023/07/01 03:21:52;;;;;;;15.00;10.60;;;;;;;24.73;52.37;99193.89;108492;1264;58194;-68
2023/07/01 03:24:19;;;;;;;14.50;10.30;;;;;;;24.94;52.16;99195.14;108483;1264;70970;-68
2023/07/01 03:26:47;;;;;;;14.00;10.10;;;;;;;25.32;51.51;99190.37;108548;1264;69797;-68
2023/07/01 03:29:14;;;;;;;14.10;9.90;;;;;;;25.51;50.94;99194.30;108474;1264;71399;-68
2023/07/01 03:31:42;;;;;;;11.70;9.60;;;;;;;25.73;50.30;99192.46;108517;1263;156275;-68
2023/07/01 03:34:10;;;;;;;12.50;9.80;;;;;;;25.88;50.01;99186.86;108656;1262;60424;-69
2023/07/01 03:36:37;;;;;;;12.60;10.10;;;;;;;26.17;49.53;99195.00;108662;1262;72814;-69
2023/07/01 03:39:07;;;;;;;9.90;8.80;;;;;;;26.52;48.69;99196.46;108617;1262;71529;-68
2023/07/01 03:41:34;;;;;;;11.30;8.80;;;;;;;26.79;47.88;99195.95;108604;1263;72655;-68
2023/07/01 03:44:03;;;;;;;14.60;9.30;;;;;;;26.99;47.43;99198.45;108588;1263;60807;-70
2023/07/01 03:46:31;;;;;;;13.10;8.80;;;;;;;27.16;47.46;99193.27;108579;1263;60008;-69
2023/07/01 03:48:58;;;;;;;10.90;8.80;;;;;;;27.42;46.92;99197.58;108925;1256;72924;-68
2023/07/01 03:51:26;;;;;;;11.00;8.50;;;;;;;27.85;45.90;99196.41;108826;1257;70977;-68
2023/07/01 03:53:54;;;;;;;11.60;8.80;;;;;;;27.97;45.44;99201.12;108862;1257;72660;-69
2023/07/01 03:56:21;;;;;;;10.20;8.50;;;;;;;28.31;44.91;99197.02;108869;1257;61695;-68
2023/07/01 03:58:49;;;;;;;13.50;8.20;;;;;;;28.63;43.96;99197.77;107758;1257;59978;-70
2023/07/01 04:01:17;;;;;;;10.60;9.00;;;;;;;28.88;43.53;99197.36;107648;1257;73027;-69
2023/07/01 04:03:45;;;;;;;12.60;8.50;;;;;;;29.09;42.86;99194.66;108864;1257;70279;-69
2023/07/01 04:06:12;;;;;;;11.60;8.30;;;;;;;29.20;42.66;99195.96;108847;1257;72668;-69
2023/07/01 04:08:39;;;;;;;9.70;8.20;;;;;;;29.45;42.77;99189.34;108864;1257;60460;-69
2023/07/01 04:11:07;;;;;;;11.10;7.70;;;;;;;29.65;42.13;99186.67;108896;1257;59964;-69
2023/07/01 04:13:34;;;;;;;9.90;7.50;;;;;;;29.95;41.19;99189.23;108932;1257;73197;-68
2023/07/01 04:16:02;;;;;;;8.90;7.40;;;;;;;30.06;40.82;99189.89;107618;1257;69990;-68
2023/07/01 04:18:29;;;;;;;12.20;8.00;;;;;;;29.89;41.17;99192.58;107430;1257;73119;-68
2023/07/01 04:20:56;;;;;;;8.50;7.40;;;;;;;29.88;40.91;99192.27;107594;1257;61739;-69
2023/07/01 04:23:24;;;;;;;10.10;7.10;;;;;;;29.81;40.54;99192.21;107518;1257;59964;-69
2023/07/01 04:25:53;;;;;;;11.90;6.90;;;;;;;30.15;40.12;99190.95;107429;1257;73083;-68
2023/07/01 04:28:21;;;;;;;11.60;7.20;;;;;;;30.41;40.11;99191.42;107593;1262;70093;-67
2023/07/01 04:30:49;;;;;;;11.10;7.00;;;;;;;30.87;39.04;99190.33;107431;1260;71418;-69
2023/07/01 04:33:16;;;;;;;7.40;6.60;;;;;;;31.09;39.00;99191.10;107449;1260;61102;-70
2023/07/01 04:35:44;;;;;;;7.40;6.50;;;;;;;31.35;38.15;99194.00;107493;1257;60233;-69
2023/07/01 04:38:11;;;;;;;9.60;6.60;;;;;;;31.75;37.42;99192.73;108814;1257;73878;-69
2023/07/01 04:40:39;;;;;;;7.90;6.20;;;;;;;31.98;36.82;99193.66;108900;1255;71141;-69
2023/07/01 04:43:07;;;;;;;7.50;6.20;;;;;;;32.02;36.56;99194.19;108983;1256;72651;-68
2023/07/01 04:45:34;;;;;;;8.60;5.90;;;;;;;32.35;36.24;99191.99;108825;1256;60384;-70
2023/07/01 04:48:02;;;;;;;7.00;5.80;;;;;;;32.54;35.64;99188.64;108947;1255;59975;-70
2023/07/01 04:50:30;;;;;;;10.70;5.90;;;;;;;32.80;35.52;99190.59;109037;1256;72931;-70
2023/07/01 04:52:57;;;;;;;10.30;6.00;;;;;;;32.99;34.78;99194.53;109040;1256;69985;-70
2023/07/01 04:55:25;;;;;;;7.30;6.30;;;;;;;33.20;34.41;99198.96;109039;1256;73085;-70
2023/07/01 04:57:52;;;;;;;7.50;6.30;;;;;;;33.42;34.34;99198.80;109029;1256;57652;-69
2023/07/01 05:00:21;;;;;;;8.80;6.30;;;;;;;33.75;33.41;99200.11;108969;1256;59091;-70
2023/07/01 05:02:48;;;;;;;8.90;6.50;;;;;;;34.15;33.10;99201.33;108978;1256;62845;-70
2023/07/01 05:05:16;;;;;;;9.60;5.60;;;;;;;34.37;32.79;99200.65;108969;1257;61901;-70
2023/07/01 05:07:45;;;;;;;8.50;5.70;;;;;;;34.51;32.39;99202.40;108651;1256;63731;-70
2023/07/01 05:10:12;;;;;;;8.20;5.50;;;;;;;34.46;32.81;99202.29;107722;1257;59351;-69
2023/07/01 05:12:40;;;;;;;8.90;5.30;;;;;;;34.49;32.38;99202.79;107628;1257;59711;-69
2023/07/01 05:15:08;;;;;;;10.20;5.60;;;;;;;34.60;32.40;99196.73;107667;1257;64063;-70
2023/07/01 05:17:35;;;;;;;7.70;4.90;;;;;;;34.94;31.94;99197.39;108990;1257;61486;-70
2023/07/01 05:20:04;;;;;;;8.90;5.80;;;;;;;35.26;31.61;99197.56;108985;1257;63796;-70
2023/07/01 05:22:32;;;;;;;7.50;5.50;;;;;;;35.58;31.32;99200.39;109061;1256;57607;-70
2023/07/01 05:24:59;;;;;;;12.60;5.50;;;;;;;35.93;30.50;99200.09;109053;1255;57665;-69
2023/07/01 05:27:27;;;;;;;6.70;5.10;;;;;;;36.23;30.58;99201.30;109016;1257;64137;-69
2023/07/01 05:29:54;;;;;;;5.90;5.00;;;;;;;36.30;30.28;99203.09;108979;1256;62071;-71
2023/07/01 05:32:22;;;;;;;6.60;5.10;;;;;;;36.13;29.91;99205.34;108988;1256;64064;-69
2023/07/01 05:34:52;;;;;;;8.10;6.00;;;;;;;36.11;29.88;99208.23;108954;1257;57384;-69
2023/07/01 05:37:19;;;;;;;6.90;5.20;;;;;;;36.41;29.64;99212.65;108965;1256;57536;-68
2023/07/01 05:39:47;;;;;;;10.90;5.60;;;;;;;36.67;29.27;99210.92;109022;1256;63095;-69
2023/07/01 05:42:14;;;;;;;6.80;5.40;;;;;;;36.78;29.13;99212.40;108964;1257;60110;-70
2023/07/01 05:44:42;;;;;;;7.10;5.50;;;;;;;36.83;28.90;99213.97;109008;1257;62685;-71
2023/07/01 05:47:09;;;;;;;7.40;4.80;;;;;;;36.84;28.70;99218.20;108868;1256;57609;-71
2023/07/01 05:49:36;;;;;;;8.10;5.50;;;;;;;37.02;28.75;99218.41;108948;1259;57511;-69
2023/07/01 05:52:04;;;;;;;6.60;5.40;;;;;;;37.14;28.42;99218.83;109038;1256;62899;-69
2023/07/01 05:54:31;;;;;;;5.60;4.80;;;;;;;37.07;28.43;99219.11;108988;1256;61365;-69
2023/07/01 05:56:59;;;;;;;8.20;5.30;;;;;;;37.14;28.01;99221.40;108989;1257;62600;-70
2023/07/01 05:59:26;;;;;;;6.80;4.90;;;;;;;37.20;28.08;99224.29;108215;1257;57901;-70
2023/07/01 06:01:54;;;;;;;6.70;4.90;;;;;;;36.97;28.17;99222.06;107747;1256;59538;-70
2023/07/01 06:04:22;;;;;;;6.20;5.00;;;;;;;36.85;28.49;99219.59;107812;1256;62849;-71
2023/07/01 06:06:50;;;;;;;7.20;4.90;;;;;;;37.16;28.30;99220.55;108979;1257;60245;-68
2023/07/01 06:09:18;;;;;;;5.60;5.00;;;;;;;37.37;27.69;99219.52;109011;1256;62715;-70
2023/07/01 06:11:45;;;;;;;7.40;4.60;;;;;;;37.66;27.67;99218.15;108963;1257;57651;-70
2023/07/01 06:14:12;;;;;;;6.80;5.00;;;;;;;37.87;27.47;99215.77;108926;1255;57652;-70
2023/07/01 06:16:40;;;;;;;11.20;4.60;;;;;;;38.08;27.10;99218.91;108949;1255;64586;-69
2023/07/01 06:19:07;;;;;;;5.60;4.60;;;;;;;38.28;26.75;99212.63;108974;1257;70788;-72
2023/07/01 06:21:34;;;;;;;6.90;4.30;;;;;;;38.59;26.34;99215.11;108978;1257;62459;-71
2023/07/01 06:24:03;;;;;;;6.90;4.80;;;;;;;38.50;25.98;99216.69;108950;1255;57483;-71
2023/07/01 06:26:30;;;;;;;6.40;4.70;;;;;;;38.50;25.80;99218.60;108892;1256;57567;-71
2023/07/01 06:28:57;;;;;;;5.20;4.20;;;;;;;38.82;25.60;99212.09;108983;1256;64123;-70
2023/07/01 06:31:25;;;;;;;10.90;4.40;;;;;;;38.80;25.28;99213.35;109164;1254;61535;-70
2023/07/01 06:33:52;;;;;;;6.10;4.00;;;;;;;38.94;25.31;99210.87;109224;1254;63159;-70
2023/07/01 06:36:20;;;;;;;4.90;3.80;;;;;;;39.23;25.17;99211.02;109206;1252;57636;-71
2023/07/01 06:38:49;;;;;;;5.10;3.80;;;;;;;39.45;24.39;99209.02;109249;1252;57418;-70
2023/07/01 06:41:16;;;;;;;5.80;3.90;;;;;;;39.73;24.51;99214.59;109262;1253;64119;-70
2023/07/01 06:43:46;;;;;;;10.10;3.80;;;;;;;40.04;24.45;99214.31;109216;1252;60113;-69
2023/07/01 06:46:14;;;;;;;7.90;3.80;;;;;;;40.30;24.37;99216.19;109230;1253;64411;-70
2023/07/01 06:48:43;;;;;;;7.30;3.90;;;;;;;40.65;24.18;99216.76;109208;1254;57426;-69
2023/07/01 06:51:10;;;;;;;8.00;3.70;;;;;;;40.84;24.16;99216.19;109265;1253;59419;-70
2023/07/01 06:53:39;;;;;;;5.90;3.80;;;;;;;41.43;23.39;99207.55;109131;1254;64191;-70
2023/07/01 06:56:06;;;;;;;4.40;3.80;;;;;;;41.44;23.12;99203.90;108953;1253;60110;-73
2023/07/01 06:58:34;;;;;;;5.20;3.80;;;;;;;41.30;23.29;99203.24;109048;1254;64076;-74
2023/07/01 07:01:01;;;;;;;5.10;3.80;;;;;;;41.06;23.10;99205.34;109050;1254;57416;-73
2023/07/01 07:03:29;;;;;;;5.00;3.40;;;;;;;40.60;23.42;99209.30;108621;1253;57990;-72
2023/07/01 07:05:56;;;;;;;5.10;3.60;;;;;;;40.69;23.58;99212.95;109192;1253;63093;-71
2023/07/01 07:08:24;;;;;;;4.00;3.20;;;;;;;41.13;23.11;99203.44;108305;1254;70286;-70
2023/07/01 07:10:51;;;;;;;5.20;3.60;;;;;;;40.80;22.39;99207.24;107597;1255;62636;-71
2023/07/01 07:13:19;;;;;;;6.70;3.90;;;;;;;40.34;22.77;99201.30;107727;1253;59523;-72
2023/07/01 07:15:46;;;;;;;5.30;3.70;;;;;;;40.58;22.95;99200.13;107885;1254;60043;-72
2023/07/01 07:18:13;;;;;;;3.80;3.40;;;;;;;40.95;22.51;99197.91;107370;1254;64423;-70
2023/07/01 07:20:41;;;;;;;6.20;3.60;;;;;;;40.96;22.72;99198.12;107856;1254;61477;-70
2023/07/01 07:23:08;;;;;;;5.10;3.50;;;;;;;40.89;22.53;99207.73;107954;1258;62458;-71
2023/07/01 07:25:36;;;;;;;7.20;3.60;;;;;;;40.94;22.56;99208.10;107861;1254;59225;-71
2023/07/01 07:28:03;;;;;;;4.40;3.20;;;;;;;41.22;22.28;99207.73;107929;1254;60371;-72
2023/07/01 07:30:31;;;;;;;9.60;3.60;;;;;;;41.51;21.78;99201.61;107823;1253;64957;-69
2023/07/01 07:32:58;;;;;;;5.50;3.60;;;;;;;41.74;21.91;99201.89;107760;1254;61493;-69
2023/07/01 07:35:26;;;;;;;5.90;3.50;;;;;;;41.76;21.50;99198.89;107758;1254;62419;-70
2023/07/01 07:37:53;;;;;;;4.30;3.30;;;;;;;41.47;21.26;99202.72;107714;1255;58900;-73
2023/07/01 07:40:21;;;;;;;5.20;3.70;;;;;;;41.21;21.67;99207.45;107633;1254;60358;-70
2023/07/01 07:42:52;;;;;;;5.60;3.40;;;;;;;41.15;21.81;99207.04;109078;1254;64958;-73
2023/07/01 07:45:21;;;;;;;5.70;3.20;;;;;;;41.40;21.85;99203.69;109156;1258;60363;-70
2023/07/01 07:47:48;;;;;;;6.00;2.90;;;;;;;41.50;21.45;99203.98;109006;1254;64074;-72
2023/07/01 07:50:20;;;;;;;5.40;3.20;;;;;;;41.66;21.48;99203.87;109128;1257;58596;-69
2023/07/01 07:52:49;;;;;;;3.40;2.90;;;;;;;41.90;21.63;99199.77;108743;1258;58229;-71
2023/07/01 07:55:17;;;;;;;3.70;2.90;;;;;;;42.16;21.33;99201.21;109036;1254;64900;-72
2023/07/01 07:57:44;;;;;;;4.80;2.80;;;;;;;42.41;20.38;99195.23;108776;1257;60383;-71
2023/07/01 08:00:12;;;;;;;3.60;2.70;;;;;;;42.67;20.17;99197.45;108584;1254;63842;-72
2023/07/01 08:02:44;;;;;;;5.30;2.50;;;;;;;42.84;19.86;99191.38;108911;1253;58126;-70
2023/07/01 08:05:16;;;;;;;4.40;3.00;;;;;;;42.74;19.83;99194.95;109038;1253;58567;-71
2023/07/01 08:07:47;;;;;;;5.30;2.70;;;;;;;42.56;20.08;99198.70;109097;1253;64966;-70
2023/07/01 08:10:17;;;;;;;;;;;;;;;42.39;20.43;99195.40;109047;1254;61592;-71
2023/07/01 08:12:45;;;;;;;3.90;2.80;;;;;;;42.19;20.13;99192.63;109152;1258;64084;-72
2023/07/01 08:15:12;;;;;;;4.50;2.70;;;;;;;42.09;20.26;99190.36;108734;1253;61064;-71
2023/07/01 08:17:40;;;;;;;4.30;2.70;;;;;;;42.30;20.13;99193.53;109195;1254;58254;-71
2023/07/01 08:20:08;;;;;;;4.20;2.60;;;;;;;42.45;19.62;99189.66;108929;1253;67429;-71
2023/07/01 08:22:36;;;;;;;2.90;2.60;;;;;;;42.34;19.74;99190.74;108517;1253;61412;-71
2023/07/01 08:25:04;;;;;;;4.80;2.80;;;;;;;41.86;19.71;99192.34;108910;1253;63142;-72
2023/07/01 08:27:31;;;;;;;4.20;2.70;;;;;;;41.37;20.24;99192.65;109097;1258;58416;-72
2023/07/01 08:29:59;;;;;;;7.00;2.50;;;;;;;41.09;20.48;99194.06;109189;1253;58129;-72
2023/07/01 08:32:26;;;;;;;4.00;2.70;;;;;;;41.64;20.15;99192.52;108907;1253;64980;-70
2023/07/01 08:34:53;;;;;;;4.80;2.50;;;;;;;41.62;19.91;99186.09;108966;1253;60697;-72
2023/07/01 08:37:21;;;;;;;4.00;2.80;;;;;;;41.46;19.86;99185.60;107903;1254;64166;-69
2023/07/01 08:39:48;;;;;;;4.20;2.60;;;;;;;41.09;20.23;99191.63;109117;1253;58637;-71
2023/07/01 08:42:19;;;;;;;4.30;2.30;;;;;;;40.78;19.76;99189.14;108921;1254;61173;-71
2023/07/01 08:44:46;;;;;;;6.00;2.50;;;;;;;40.73;19.98;99187.82;108017;1254;67212;-70
2023/07/01 08:47:14;;;;;;;3.20;2.40;;;;;;;40.50;20.26;99189.20;108922;1260;60653;-70
2023/07/01 08:49:42;;;;;;;3.50;2.40;;;;;;;41.00;19.81;99192.64;109030;1261;62717;-72
2023/07/01 08:52:10;;;;;;;4.50;2.70;;;;;;;41.06;19.41;99198.00;109040;1254;58462;-73
2023/07/01 08:54:41;;;;;;;3.90;2.50;;;;;;;41.01;19.67;99193.76;109112;1254;58130;-72
2023/07/01 08:57:09;;;;;;;4.20;2.70;;;;;;;40.78;19.96;99192.36;109139;1254;63900;-71
2023/07/01 08:59:37;;;;;;;3.10;2.40;;;;;;;40.49;20.35;99188.81;108168;1254;61395;-70
2023/07/01 09:02:05;;;;;;;4.90;2.80;;;;;;;41.19;20.26;99190.52;108993;1254;63020;-70
2023/07/01 09:04:33;;;;;;;8.30;2.40;;;;;;;41.90;19.73;99193.02;108957;1252;58457;-72
2023/07/01 09:07:00;;;;;;;3.20;2.50;;;;;;;42.34;18.86;99193.12;108382;1252;58977;-71
2023/07/01 09:09:30;;;;;;;4.30;2.50;;;;;;;42.94;18.63;99191.54;109136;1253;63642;-70
2023/07/01 09:11:58;;;;;;;3.30;2.20;;;;;;;43.48;18.12;99186.99;109209;1253;61842;-71
2023/07/01 09:14:25;;;;;;;6.90;2.70;;;;;;;44.00;17.51;99183.52;108700;1254;63775;-72
2023/07/01 09:16:52;;;;;;;3.30;2.30;;;;;;;44.07;16.98;99184.82;107780;1256;60340;-70
2023/07/01 09:19:22;;;;;;;5.40;2.30;;;;;;;43.89;16.73;99183.63;107828;1254;60709;-71
2023/07/01 09:21:49;;;;;;;3.70;2.20;;;;;;;43.78;16.96;99182.50;108888;1254;64920;-68
2023/07/01 09:24:17;;;;;;;3.90;2.20;;;;;;;43.83;17.13;99181.27;108092;1254;61441;-71
2023/07/01 09:26:44;;;;;;;3.50;2.00;;;;;;;44.10;16.56;99180.77;107544;1258;66094;-68
2023/07/01 09:29:15;;;;;;;3.90;2.00;;;;;;;44.45;16.25;99178.60;108442;1257;58997;-70
2023/07/01 09:31:47;;;;;;;3.50;2.30;;;;;;;44.23;16.71;99175.77;109247;1254;58080;-70
2023/07/01 09:34:16;;;;;;;3.50;2.10;;;;;;;44.42;17.33;99172.39;109077;1253;64237;-71
2023/07/01 09:36:44;;;;;;;3.50;2.40;;;;;;;44.70;17.00;99174.50;109257;1254;61478;-70
2023/07/01 09:39:11;;;;;;;2.50;2.00;;;;;;;44.60;16.41;99173.11;108758;1254;63798;-70
2023/07/01 09:41:39;;;;;;;3.50;2.20;;;;;;;44.51;16.27;99171.52;108346;1254;60380;-71
2023/07/01 09:44:14;;;;;;;4.60;2.20;;;;;;;44.45;16.27;99167.11;107727;1254;59149;-71
2023/07/01 09:46:43;;;;;;;5.80;1.80;;;;;;;44.21;16.69;99166.45;107650;1253;65060;-69
2023/07/01 09:49:11;;;;;;;4.10;2.30;;;;;;;44.04;16.97;99163.73;109081;1254;61856;-71
2023/07/01 09:51:49;;;;;;;2.20;1.70;;;;;;;43.69;16.90;99164.87;109206;1252;63796;-70
2023/07/01 09:54:29;;;;;;;4.60;2.10;;;;;;;43.57;17.31;99162.88;109317;1254;58481;-71
2023/07/01 09:56:58;;;;;;;4.50;2.40;;;;;;;43.22;17.47;99159.81;109081;1253;58235;-70
2023/07/01 09:59:25;;;;;;;4.70;2.20;;;;;;;42.98;17.93;99151.40;108163;1254;64949;-71
2023/07/01 10:01:55;;;;;;;3.50;2.10;;;;;;;42.52;18.05;99156.26;107654;1254;60962;-70
2023/07/01 10:04:28;;;;;;;3.30;1.70;;;;;;;42.17;18.36;99158.23;108223;1256;63724;-69
2023/07/01 10:06:58;;;;;;;5.70;2.40;;;;;;;42.18;18.01;99155.18;109154;1254;58177;-73
2023/07/01 10:09:27;;;;;;;3.30;2.20;;;;;;;42.27;18.24;99150.52;108445;1254;58871;-72
2023/07/01 10:11:57;;;;;;;4.80;2.40;;;;;;;42.27;18.48;99151.62;109157;1256;65861;-71
2023/07/01 10:14:31;;;;;;;3.50;2.10;;;;;;;42.19;18.50;99149.92;108327;1254;61827;-70
2023/07/01 10:16:58;;;;;;;5.00;2.00;;;;;;;42.01;18.34;99148.83;108995;1254;63061;-71
2023/07/01 10:19:33;;;;;;;3.00;2.20;;;;;;;41.89;18.49;99143.87;109116;1252;58212;-72
2023/07/01 10:22:22;;;;;;;3.40;2.10;;;;;;;42.17;18.53;99140.85;109138;1253;58555;-71
2023/07/01 10:25:05;;;;;;;3.00;2.00;;;;;;;42.46;18.34;99145.27;109042;1252;65542;-72
2023/07/01 10:27:42;;;;;;;4.80;2.10;;;;;;;42.86;17.91;99142.23;109055;1254;60196;-72
2023/07/01 10:30:13;;;;;;;9.30;2.00;;;;;;;43.05;17.66;99145.17;108720;1254;62498;-71
2023/07/01 10:32:43;;;;;;;9.20;2.80;;;;;;;43.30;17.21;99145.77;109160;1254;58203;-71
2023/07/01 10:35:13;;;;;;;2.80;2.10;;;;;;;43.01;17.23;99142.00;109276;1254;58346;-71
2023/07/01 10:37:41;;;;;;;5.70;1.80;;;;;;;42.54;17.37;99144.53;109312;1253;64898;-72
2023/07/01 10:40:27;;;;;;;3.10;2.20;;;;;;;42.04;17.79;99144.83;109085;1252;61595;-70
2023/07/01 10:43:33;;;;;;;2.70;2.00;;;;;;;41.65;17.52;99152.23;109237;1254;63826;-69
2023/07/01 10:46:19;;;;;;;5.00;2.40;;;;;;;41.34;17.98;99146.70;108369;1259;58169;-71
2023/07/01 10:49:02;;;;;;;4.50;1.90;;;;;;;41.30;18.16;99142.26;109051;1254;58835;-71
2023/07/01 10:51:44;;;;;;;3.60;1.90;;;;;;;41.19;18.13;99145.48;108824;1255;63662;-70
2023/07/01 10:54:12;;;;;;;10.40;2.80;;;;;;;41.45;17.92;99144.60;107826;1254;61879;-70
2023/07/01 10:56:42;;;;;;;3.60;1.90;;;;;;;41.66;18.24;99138.98;107866;1254;63740;-71
2023/07/01 10:59:22;;;;;;;3.00;2.10;;;;;;;41.98;18.36;99134.87;109116;1254;58550;-70
2023/07/01 11:01:59;;;;;;;3.60;2.20;;;;;;;42.10;18.02;99136.60;108841;1254;58422;-70
2023/07/01 11:04:52;;;;;;;3.30;2.10;;;;;;;41.77;18.25;99140.40;107946;1258;65223;-73
2023/07/01 11:07:24;;;;;;;3.70;2.20;;;;;;;41.45;18.53;99139.96;107687;1254;61357;-72
2023/07/01 11:09:53;;;;;;;4.30;2.10;;;;;;;41.30;18.34;99140.25;107736;1257;64067;-72
2023/07/01 11:12:20;;;;;;;4.10;2.00;;;;;;;41.08;18.77;99140.83;109053;1254;58347;-70
2023/07/01 11:14:48;;;;;;;5.30;2.20;;;;;;;40.76;18.87;99137.77;108276;1258;58785;-70
2023/07/01 11:17:16;;;;;;;3.40;1.90;;;;;;;40.92;18.82;99136.85;108586;1254;67647;-71
2023/07/01 11:19:44;;;;;;;2.70;2.00;;;;;;;41.20;18.73;99135.81;109244;1254;61385;-69
2023/07/01 11:22:15;;;;;;;3.30;1.90;;;;;;;41.43;18.41;99134.06;108997;1257;62501;-72
2023/07/01 11:24:43;;;;;;;7.50;2.40;;;;;;;41.56;18.45;99135.23;109235;1254;58156;-70
2023/07/01 11:27:11;;;;;;;5.30;2.60;;;;;;;41.71;18.34;99132.21;107856;1259;60265;-70
2023/07/01 11:29:41;;;;;;;4.30;2.20;;;;;;;41.62;18.64;99133.04;107657;1254;64937;-70